Time;durP1;ratioP1;P1;durP2;ratioP2;P2;SDS_P1;SDS_P2;PMS_P1;PMS_P2;Temp;Humidity;BMP_temperature;BMP_pressure;BME280_temperature;BME280_humidity;BME280_pressure;Samples;Min_cycle;Max_cycle;Signal;HPM_P1;HPM_P2
2022/04/23 00:01:50;;;;;;;;;;;8.10;76.60;;;7.02;nan;95156.75;4284687;33;20240;-85
2022/04/23 00:04:19;;;;;;;;;;;8.10;76.50;;;7.03;nan;95161.13;4260237;33;19911;-84
2022/04/23 00:06:48;;;;;;;;;;;8.10;76.60;;;7.02;nan;95154.03;4259759;33;20033;-85
2022/04/23 00:09:16;;;;;;;;;;;8.10;76.60;;;7.01;nan;95155.13;4261146;33;19929;-84
2022/04/23 00:11:45;;;;;;;;;;;8.10;76.60;;;7.02;nan;95156.75;4212733;33;19902;-85
2022/04/23 00:14:14;;;;;;;;;;;8.10;76.70;;;7.01;nan;95155.13;4212876;33;20336;-84
2022/04/23 00:16:44;;;;;;;;;;;8.10;76.70;;;6.99;nan;95151.84;4236030;33;20162;-85
2022/04/23 00:19:14;;;;;;;;;;;8.10;76.80;;;7.01;nan;95157.84;4260135;33;20126;-85
2022/04/23 00:21:42;;;;;;;;;;;8.10;76.80;;;7.01;nan;95157.84;4236239;33;19952;-83
2022/04/23 00:24:11;;;;;;;;;;;8.10;76.80;;;7.01;nan;95146.97;4260254;33;19902;-84
2022/04/23 00:26:40;;;;;;;;;;;8.10;76.80;;;7.01;nan;95152.41;4235614;33;19902;-84
2022/04/23 00:29:09;;;;;;;;;;;8.10;76.70;;;7.01;nan;95146.97;4236075;33;19909;-84
2022/04/23 00:31:37;;;;;;;;;;;8.10;76.70;;;7.01;nan;95155.13;4260932;33;19902;-84
2022/04/23 00:34:06;;;;;;;;;;;8.10;76.80;;;7.00;nan;95161.66;4259904;33;19912;-84
2022/04/23 00:36:36;;;;;;;;;;;8.10;76.70;;;7.00;nan;95164.38;4235699;33;19925;-84
2022/04/23 00:39:05;;;;;;;;;;;8.10;76.80;;;7.00;nan;95175.25;4212770;33;20052;-84
2022/04/23 00:41:46;;;;;;;;;;;8.10;76.80;;;7.01;nan;95173.34;4236158;33;19993;-84
2022/04/23 00:44:15;;;;;;;;;;;8.10;76.80;;;7.00;nan;95177.97;4184916;33;19986;-84
2022/04/23 00:46:44;;;;;;;;;;;8.10;76.80;;;7.01;nan;95181.50;4184411;33;20056;-84
2022/04/23 00:49:13;;;;;;;;;;;8.10;76.80;;;6.99;nan;95187.22;4184655;33;19903;-84
2022/04/23 00:51:43;;;;;;;;;;;8.10;76.80;;;7.00;nan;95180.72;4185686;33;19940;-84
2022/04/23 00:54:11;;;;;;;;;;;8.10;76.90;;;7.01;nan;95190.50;4187071;33;19909;-85
2022/04/23 00:56:41;;;;;;;;;;;8.10;76.90;;;7.00;nan;95188.88;4234170;33;19909;-84
2022/04/23 00:59:12;;;;;;;;;;;8.10;76.80;;;7.00;nan;95185.31;4232444;33;19909;-83
2022/04/23 01:01:42;;;;;;;;;;;8.10;76.90;;;6.99;nan;95181.78;4262440;33;20129;-84
2022/04/23 01:04:12;;;;;;;;;;;8.10;76.90;;;7.01;nan;95181.50;4238664;33;20004;-84
2022/04/23 01:06:44;;;;;;;;;;;8.10;76.80;;;6.99;nan;95180.97;4238007;33;20121;-84
2022/04/23 01:09:12;;;;;;;;;;;8.10;76.80;;;6.99;nan;95192.69;4233422;33;19910;-84
2022/04/23 01:11:41;;;;;;;;;;;8.10;76.90;;;6.99;nan;95192.69;4186997;33;20012;-84
2022/04/23 01:14:10;;;;;;;;;;;8.10;76.90;;;6.99;nan;95200.84;4210251;33;19909;-85
2022/04/23 01:16:39;;;;;;;;;;;8.10;76.90;;;6.99;nan;95195.41;4209763;33;19937;-84
2022/04/23 01:19:08;;;;;;;;;;;8.10;77.10;;;6.99;nan;95192.69;4210246;33;19902;-84
2022/04/23 01:21:38;;;;;;;;;;;8.10;76.90;;;6.99;nan;95191.84;4210158;33;19902;-85
2022/04/23 01:24:07;;;;;;;;;;;8.10;76.90;;;6.99;nan;95192.69;4210067;33;20244;-84
2022/04/23 01:26:36;;;;;;;;;;;8.10;76.90;;;6.98;nan;95191.03;4232509;33;23249;-84
2022/04/23 01:29:05;;;;;;;;;;;8.10;76.90;;;6.98;nan;95191.03;4233780;33;19902;-84
2022/04/23 01:31:33;;;;;;;;;;;8.10;76.90;;;6.99;nan;95187.22;4233458;33;20112;-85
2022/04/23 01:34:04;;;;;;;;;;;8.10;76.90;;;7.00;nan;95193.47;4210031;33;19966;-85
2022/04/23 01:36:32;;;;;;;;;;;8.10;76.90;;;7.00;nan;95188.88;4209600;33;19904;-85
2022/04/23 01:39:02;;;;;;;;;;;8.10;76.90;;;6.99;nan;95197.28;4186808;33;19909;-85
2022/04/23 01:41:31;;;;;;;;;;;8.10;76.90;;;6.99;nan;95197.28;4209804;33;20096;-85
2022/04/23 01:43:59;;;;;;;;;;;8.10;76.90;;;6.96;nan;95179.59;4209932;33;20463;-85
2022/04/23 01:46:28;;;;;;;;;;;8.10;76.90;;;6.99;nan;95186.41;4233727;33;20221;-83
2022/04/23 01:48:57;;;;;;;;;;;8.10;76.90;;;6.98;nan;95196.47;4209876;33;20018;-83
2022/04/23 01:51:26;;;;;;;;;;;8.10;77.00;;;6.97;nan;95194.84;4234141;33;20020;-84
2022/04/23 01:53:55;;;;;;;;;;;8.10;76.90;;;6.99;nan;95200.00;4209783;33;19902;-84
2022/04/23 01:56:25;;;;;;;;;;;8.10;76.90;;;6.99;nan;95194.56;4232701;33;19902;-84
2022/04/23 01:58:53;;;;;;;;;;;8.10;76.90;;;6.98;nan;95196.47;4209649;33;19903;-84
2022/04/23 02:01:22;;;;;;;;;;;8.10;76.90;;;6.99;nan;95191.84;4209686;33;20018;-84
2022/04/23 02:03:51;;;;;;;;;;;8.10;77.00;;;6.99;nan;95203.56;4209050;33;19922;-84
2022/04/23 02:06:20;;;;;;;;;;;8.10;76.90;;;6.99;nan;95197.28;4209168;33;20061;-84
2022/04/23 02:08:50;;;;;;;;;;;8.10;76.90;;;6.99;nan;95195.41;4209665;33;19902;-84
2022/04/23 02:11:18;;;;;;;;;;;8.10;76.90;;;6.98;nan;95201.94;4233905;33;20040;-84
2022/04/23 02:13:49;;;;;;;;;;;8.10;77.00;;;6.97;nan;95200.28;4186318;33;19903;-84
2022/04/23 02:16:17;;;;;;;;;;;8.10;77.00;;;6.99;nan;95208.16;4232280;33;19902;-83
2022/04/23 02:18:46;;;;;;;;;;;8.10;77.10;;;6.99;nan;95209.00;4208592;33;19902;-83
2022/04/23 02:21:15;;;;;;;;;;;8.10;77.00;;;6.98;nan;95199.19;4208915;33;19902;-84
2022/04/23 02:23:44;;;;;;;;;;;8.10;77.00;;;6.99;nan;95198.13;4209372;33;20144;-84
2022/04/23 02:26:12;;;;;;;;;;;8.10;77.00;;;6.99;nan;95203.56;4208849;33;20401;-84
2022/04/23 02:28:41;;;;;;;;;;;8.10;77.00;;;6.99;nan;95209.00;4186283;33;19988;-84
2022/04/23 02:31:11;;;;;;;;;;;8.10;77.00;;;7.00;nan;95193.47;4186105;33;20150;-84
2022/04/23 02:33:39;;;;;;;;;;;8.10;77.00;;;6.97;nan;95192.13;4209049;33;19902;-83
2022/04/23 02:36:08;;;;;;;;;;;8.10;77.10;;;6.99;nan;95200.84;4185679;33;20153;-84
2022/04/23 02:38:40;;;;;;;;;;;8.10;77.00;;;6.99;nan;95197.28;4209367;33;20455;-84
2022/04/23 02:41:08;;;;;;;;;;;8.10;77.10;;;6.98;nan;95191.03;4209260;33;20271;-84
2022/04/23 02:43:38;;;;;;;;;;;8.10;77.10;;;6.98;nan;95193.75;4185913;33;19902;-84
2022/04/23 02:46:08;;;;;;;;;;;8.10;77.10;;;7.00;nan;95193.47;4185362;33;20030;-84
2022/04/23 02:48:38;;;;;;;;;;;8.10;77.10;;;6.99;nan;95184.50;4209181;33;19910;-84
2022/04/23 02:51:07;;;;;;;;;;;8.10;77.10;;;6.99;nan;95186.41;4257614;33;20248;-84
2022/04/23 02:53:36;;;;;;;;;;;8.10;77.10;;;6.99;nan;95184.50;4261066;33;20113;-84
2022/04/23 02:56:05;;;;;;;;;;;8.10;77.10;;;6.98;nan;95191.03;4211250;33;19969;-84
2022/04/23 02:58:34;;;;;;;;;;;8.10;77.00;;;7.00;nan;95198.91;4209051;33;19902;-84
2022/04/23 03:01:29;;;;;;;;;;;8.10;77.00;;;6.98;nan;95196.47;4208993;33;19902;-84
2022/04/23 03:04:10;;;;;;;;;;;8.10;77.00;;;6.96;nan;95193.22;4209397;33;19902;-84
2022/04/23 03:06:41;;;;;;;;;;;8.10;77.00;;;6.96;nan;95195.94;4208800;33;19910;-84
2022/04/23 03:09:10;;;;;;;;;;;8.10;77.00;;;6.99;nan;95191.84;4208958;33;19910;-83
2022/04/23 03:11:39;;;;;;;;;;;8.10;77.00;;;6.98;nan;95192.94;4185779;33;19966;-83
2022/04/23 03:14:08;;;;;;;;;;;8.10;76.90;;;7.00;nan;95188.88;4185547;33;20087;-84
2022/04/23 03:16:37;;;;;;;;;;;8.10;76.90;;;7.00;nan;95185.31;4208526;33;20085;-84
2022/04/23 03:19:08;;;;;;;;;;;8.10;76.90;;;7.00;nan;95188.03;4185850;33;19991;-84
2022/04/23 03:21:37;;;;;;;;;;;8.10;76.90;;;7.00;nan;95186.16;4256885;33;20381;-84
2022/04/23 03:24:06;;;;;;;;;;;8.10;76.90;;;6.99;nan;95176.34;4260530;33;19901;-83
2022/04/23 03:26:35;;;;;;;;;;;8.10;76.90;;;6.99;nan;95181.78;4261112;33;19908;-84
2022/04/23 03:29:04;;;;;;;;;;;8.10;76.80;;;7.00;nan;95175.25;4260340;33;19902;-84
2022/04/23 03:31:33;;;;;;;;;;;8.10;76.90;;;7.00;nan;95158.94;4240988;33;20115;-84
2022/04/23 03:34:02;;;;;;;;;;;8.10;76.80;;;6.99;nan;95154.59;4236840;33;19909;-84
2022/04/23 03:36:33;;;;;;;;;;;8.10;76.90;;;7.01;nan;95167.91;4260049;33;19902;-84
2022/04/23 03:39:01;;;;;;;;;;;8.10;76.90;;;7.00;nan;95160.81;4236748;33;19908;-84
2022/04/23 03:41:30;;;;;;;;;;;8.10;76.90;;;6.98;nan;95150.22;4213345;33;19908;-84
2022/04/23 03:43:58;;;;;;;;;;;8.10;76.90;;;6.99;nan;95149.13;4260407;33;19901;-84
2022/04/23 03:46:27;;;;;;;;;;;8.10;77.00;;;7.00;nan;95144.50;4260039;33;20110;-84
2022/04/23 03:48:56;;;;;;;;;;;8.10;76.90;;;7.00;nan;95141.78;4236647;33;19902;-84
2022/04/23 03:51:25;;;;;;;;;;;8.10;77.00;;;6.98;nan;95135.78;4236795;33;19924;-84
2022/04/23 03:53:55;;;;;;;;;;;8.10;77.00;;;7.00;nan;95133.63;4260241;33;20210;-83
2022/04/23 03:56:27;;;;;;;;;;;8.10;77.00;;;7.01;nan;95138.81;4259925;33;19908;-84
2022/04/23 03:58:56;;;;;;;;;;;8.10;77.00;;;7.01;nan;95140.69;4236440;33;20021;-84
2022/04/23 04:01:25;;;;;;;;;;;8.10;76.90;;;7.01;nan;95138.81;4212990;33;20126;-83
2022/04/23 04:03:57;;;;;;;;;;;8.10;76.90;;;7.00;nan;95134.44;4236528;33;19901;-84
2022/04/23 04:06:29;;;;;;;;;;;8.10;76.90;;;7.03;nan;95136.63;4236195;33;19944;-85
2022/04/23 04:09:05;;;;;;;;;;;8.10;76.90;;;7.04;nan;95130.06;4236353;33;19910;-84
2022/04/23 04:14:19;;;;;;;;;;;8.20;76.80;;;7.08;nan;95130.34;4235103;33;19955;-84
2022/04/23 04:16:51;;;;;;;;;;;8.20;76.70;;;7.09;nan;95123.00;4235729;33;19909;-85
2022/04/23 04:19:20;;;;;;;;;;;8.20;76.70;;;7.09;nan;95131.16;4213068;33;19909;-84
2022/04/23 04:21:49;;;;;;;;;;;8.20;76.60;;;7.11;nan;95131.69;4236400;33;20004;-84
2022/04/23 04:24:19;;;;;;;;;;;8.20;76.60;;;7.13;nan;95137.69;4212810;33;20279;-85
2022/04/23 04:26:48;;;;;;;;;;;8.20;76.50;;;7.11;nan;95123.53;4215210;33;20213;-84
2022/04/23 04:29:16;;;;;;;;;;;8.20;76.40;;;7.15;nan;95127.34;4217567;33;19948;-85
2022/04/23 04:31:57;;;;;;;;;;;8.20;76.30;;;7.14;nan;95128.44;4227120;33;19966;-84
2022/04/23 04:34:28;;;;;;;;;;;8.20;76.30;;;7.14;nan;95129.25;4264758;33;20140;-84
2022/04/23 04:37:03;;;;;;;;;;;8.20;76.30;;;7.13;nan;95119.44;4252364;33;19902;-85
2022/04/23 04:39:39;;;;;;;;;;;8.20;76.30;;;7.14;nan;95118.34;4218637;33;20105;-85
2022/04/23 04:42:08;;;;;;;;;;;8.20;76.30;;;7.13;nan;95124.88;4216967;33;19924;-85
2022/04/23 04:44:43;;;;;;;;;;;8.20;76.30;;;7.14;nan;95128.44;4264855;33;19908;-84
2022/04/23 04:47:12;;;;;;;;;;;8.20;76.30;;;7.14;nan;95123.78;4264450;33;19924;-85
2022/04/23 04:49:42;;;;;;;;;;;8.20;76.30;;;7.14;nan;95128.44;4265592;33;19927;-85
2022/04/23 04:52:19;;;;;;;;;;;8.20;76.30;;;7.15;nan;95113.75;4226018;33;19902;-84
2022/04/23 04:55:01;;;;;;;;;;;8.20;76.30;;;7.15;nan;95113.75;4213988;33;20176;-84
2022/04/23 04:57:30;;;;;;;;;;;8.20;76.30;;;7.17;nan;95122.41;4212046;33;19902;-85
2022/04/23 04:59:58;;;;;;;;;;;8.30;76.40;;;7.18;nan;95121.34;4212523;33;19902;-85
2022/04/23 05:02:51;;;;;;;;;;;8.30;76.40;;;7.18;nan;95114.00;4189241;33;20415;-85
2022/04/23 05:05:22;;;;;;;;;;;8.30;76.30;;;7.18;nan;95115.88;4236508;33;19944;-85
2022/04/23 05:07:57;;;;;;;;;;;8.30;76.20;;;7.19;nan;95128.41;4211875;33;20086;-84
2022/04/23 05:10:30;;;;;;;;;;;8.30;76.20;;;7.19;nan;95122.97;4216717;33;19909;-84
2022/04/23 05:12:58;;;;;;;;;;;8.30;76.20;;;7.19;nan;95131.13;4217191;33;19909;-84
2022/04/23 05:15:27;;;;;;;;;;;8.30;76.20;;;7.19;nan;95133.84;4217090;33;19901;-84
2022/04/23 05:17:55;;;;;;;;;;;8.30;76.20;;;7.18;nan;95134.94;4216460;33;20083;-84
2022/04/23 05:20:24;;;;;;;;;;;8.30;76.30;;;7.18;nan;95134.94;4217196;33;20217;-84
2022/04/23 05:22:54;;;;;;;;;;;8.30;76.20;;;7.17;nan;95133.31;4216878;33;20012;-84
2022/04/23 05:25:22;;;;;;;;;;;8.30;76.30;;;7.16;nan;95137.16;4240415;33;19902;-85
2022/04/23 05:27:52;;;;;;;;;;;8.20;76.10;;;7.16;nan;95140.66;4211555;33;19902;-84
2022/04/23 05:30:21;;;;;;;;;;;8.30;76.30;;;7.16;nan;95145.31;4212139;33;19909;-85
2022/04/23 05:32:49;;;;;;;;;;;8.20;76.30;;;7.14;nan;95150.22;4211942;33;19902;-84
2022/04/23 05:35:18;;;;;;;;;;;8.20;76.30;;;7.13;nan;95148.56;4212028;33;20045;-84
2022/04/23 05:37:47;;;;;;;;;;;8.20;76.30;;;7.15;nan;95160.00;4233287;33;19925;-84
2022/04/23 05:40:16;;;;;;;;;;;8.20;76.30;;;7.13;nan;95162.19;4209921;33;19902;-84
2022/04/23 05:42:44;;;;;;;;;;;8.20;76.30;;;7.13;nan;95162.19;4253114;33;19950;-84
2022/04/23 05:45:29;;;;;;;;;;;8.20;76.30;;;7.10;nan;95155.38;4238074;33;19942;-84
2022/04/23 05:48:13;;;;;;;;;;;8.20;76.30;;;7.12;nan;95166.78;4251544;33;19902;-83
2022/04/23 05:50:42;;;;;;;;;;;8.20;76.30;;;7.13;nan;95164.91;4214620;33;20044;-85
2022/04/23 05:53:13;;;;;;;;;;;8.20;76.40;;;7.13;nan;95170.34;4261960;33;19901;-83
2022/04/23 05:55:58;;;;;;;;;;;8.20;76.40;;;7.12;nan;95174.16;4215829;33;20114;-85
2022/04/23 05:58:36;;;;;;;;;;;8.20;76.40;;;7.10;nan;95173.63;4262254;33;19963;-85
2022/04/23 06:01:12;;;;;;;;;;;8.20;76.40;;;7.12;nan;95179.59;4215749;33;19902;-82
2022/04/23 06:03:51;;;;;;;;;;;8.20;76.40;;;7.11;nan;95176.06;4237864;33;19909;-85
2022/04/23 06:06:25;;;;;;;;;;;8.20;76.40;;;7.11;nan;95183.41;4215401;33;19909;-84
2022/04/23 06:08:54;;;;;;;;;;;8.20;76.40;;;7.09;nan;95180.13;4214556;33;20125;-84
2022/04/23 06:11:23;;;;;;;;;;;8.20;76.40;;;7.12;nan;95190.50;4261507;33;19952;-84
2022/04/23 06:13:54;;;;;;;;;;;8.20;76.40;;;7.11;nan;95184.22;4262772;33;19901;-84
2022/04/23 06:16:24;;;;;;;;;;;8.20;76.40;;;7.11;nan;95186.94;4213872;33;19909;-84
2022/04/23 06:18:53;;;;;;;;;;;8.20;76.40;;;7.12;nan;95195.94;4261390;33;19909;-84
2022/04/23 06:21:22;;;;;;;;;;;8.20;76.40;;;7.12;nan;95195.94;4261249;33;19989;-85
2022/04/23 06:23:50;;;;;;;;;;;8.20;76.40;;;7.11;nan;95195.09;4217991;28;19977;-81
2022/04/23 06:26:19;;;;;;;;;;;8.20;76.40;;;7.11;nan;95194.28;4185849;33;20146;-81
2022/04/23 06:28:47;;;;;;;;;;;8.20;76.40;;;7.12;nan;95209.53;4209613;33;19902;-81
2022/04/23 06:31:16;;;;;;;;;;;8.20;76.40;;;7.13;nan;95213.91;4209528;33;19903;-81
2022/04/23 06:33:46;;;;;;;;;;;8.20;76.40;;;7.12;nan;95221.22;4186172;33;20111;-81
2022/04/23 06:36:15;;;;;;;;;;;8.20;76.40;;;7.12;nan;95217.69;4209042;33;20148;-81
2022/04/23 06:38:43;;;;;;;;;;;8.20;76.30;;;7.12;nan;95220.44;4186238;33;19909;-81
2022/04/23 06:41:12;;;;;;;;;;;8.20;76.40;;;7.14;nan;95226.41;4186029;33;19907;-81
2022/04/23 06:43:40;;;;;;;;;;;8.20;76.40;;;7.12;nan;95229.41;4209159;33;19903;-80
2022/04/23 06:46:09;;;;;;;;;;;8.20;76.30;;;7.13;nan;95232.94;4185729;33;19902;-81
2022/04/23 06:48:37;;;;;;;;;;;8.20;76.30;;;7.13;nan;95238.38;4209225;33;19957;-81
2022/04/23 06:51:08;;;;;;;;;;;8.20;76.40;;;7.12;nan;95242.19;4209102;33;20360;-80
2022/04/23 06:53:37;;;;;;;;;;;8.20;76.40;;;7.13;nan;95249.28;4209133;33;20252;-81
2022/04/23 06:56:05;;;;;;;;;;;8.20;76.30;;;7.14;nan;95250.91;4208884;33;20295;-81
2022/04/23 06:58:34;;;;;;;;;;;8.20;76.40;;;7.13;nan;95254.72;4209298;33;20335;-81
2022/04/23 07:01:03;;;;;;;;;;;8.20;76.40;;;7.13;nan;95257.44;4232704;33;20090;-80
2022/04/23 07:03:32;;;;;;;;;;;8.20;76.40;;;7.12;nan;95262.06;4186213;33;20262;-81
2022/04/23 07:06:00;;;;;;;;;;;8.20;76.40;;;7.13;nan;95258.25;4232622;33;19903;-80
2022/04/23 07:08:30;;;;;;;;;;;8.20;76.40;;;7.13;nan;95265.59;4209576;33;19902;-81
2022/04/23 07:10:59;;;;;;;;;;;8.20;76.40;;;7.13;nan;95266.41;4209632;33;20350;-80
2022/04/23 07:13:28;;;;;;;;;;;8.20;76.40;;;7.12;nan;95264.78;4209570;33;19909;-80
2022/04/23 07:15:57;;;;;;;;;;;8.20;76.40;;;7.13;nan;95269.13;4186098;33;19902;-81
2022/04/23 07:18:26;;;;;;;;;;;8.20;76.40;;;7.13;nan;95277.28;4209571;33;20352;-80
2022/04/23 07:20:54;;;;;;;;;;;8.20;76.40;;;7.13;nan;95271.06;4210091;33;20285;-80
2022/04/23 07:26:10;;;;;;;;;;;8.20;76.40;;;7.13;nan;95288.19;4200628;33;20075;-80
2022/04/23 07:28:39;;;;;;;;;;;8.20;76.40;;;7.13;nan;95290.91;4210576;33;19903;-80
2022/04/23 07:31:07;;;;;;;;;;;8.20;76.40;;;7.14;nan;95291.75;4187422;33;20098;-80
2022/04/23 07:39:08;;;;;;;;;;;8.20;76.40;;;7.15;nan;95296.91;4234967;33;19906;-80
2022/04/23 07:41:38;;;;;;;;;;;8.20;76.40;;;7.15;nan;95296.09;4185474;33;20060;-80
2022/04/23 07:44:07;;;;;;;;;;;8.20;76.40;;;7.15;nan;95293.38;4208441;33;19903;-80
2022/04/23 07:46:36;;;;;;;;;;;8.20;76.30;;;7.16;nan;95303.19;4184900;33;20162;-80
2022/04/23 07:49:04;;;;;;;;;;;8.20;76.40;;;7.15;nan;95304.25;4208217;33;20124;-80
2022/04/23 07:51:33;;;;;;;;;;;8.20;76.30;;;7.17;nan;95296.63;4208552;33;19909;-80
2022/04/23 07:54:02;;;;;;;;;;;8.20;76.30;;;7.17;nan;95302.06;4208203;33;19902;-80
2022/04/23 07:56:30;;;;;;;;;;;8.20;76.40;;;7.17;nan;95302.06;4184844;33;20016;-80
2022/04/23 07:59:00;;;;;;;;;;;8.30;76.40;;;7.18;nan;95303.69;4208324;33;19925;-80
2022/04/23 08:01:29;;;;;;;;;;;8.30;76.40;;;7.19;nan;95302.63;4184595;33;20229;-80
2022/04/23 08:03:59;;;;;;;;;;;8.30;76.50;;;7.18;nan;95300.97;4208498;33;19963;-80
2022/04/23 08:06:27;;;;;;;;;;;8.30;76.50;;;7.20;nan;95301.53;4208027;33;19902;-81
2022/04/23 08:08:56;;;;;;;;;;;8.30;76.40;;;7.19;nan;95302.63;4232778;33;19902;-81
2022/04/23 08:11:25;;;;;;;;;;;8.30;76.40;;;7.19;nan;95306.16;4208455;33;19909;-81
2022/04/23 08:13:53;;;;;;;;;;;8.30;76.50;;;7.18;nan;95309.97;4185190;33;19902;-81
2022/04/23 08:16:26;;;;;;;;;;;8.30;76.50;;;7.21;nan;95308.59;4282467;33;20170;-81
2022/04/23 08:18:56;;;;;;;;;;;8.30;76.40;;;7.20;nan;95312.41;4290126;33;19924;-80
2022/04/23 08:21:24;;;;;;;;;;;8.30;76.40;;;7.20;nan;95317.84;4265134;33;19901;-80
2022/04/23 08:23:53;;;;;;;;;;;8.30;76.40;;;7.21;nan;95316.78;4241070;33;20161;-80
2022/04/23 08:26:21;;;;;;;;;;;8.30;76.40;;;7.21;nan;95314.06;4288783;33;20347;-80
2022/04/23 08:31:37;;;;;;;;;;;8.30;76.40;;;7.21;nan;95319.50;4241080;33;20219;-81
2022/04/23 08:34:06;;;;;;;;;;;8.30;76.40;;;7.22;nan;95318.41;4265023;33;19924;-81
2022/04/23 08:36:35;;;;;;;;;;;8.30;76.40;;;7.21;nan;95322.22;4240826;33;20247;-81
2022/04/23 08:39:04;;;;;;;;;;;8.30;76.40;;;7.21;nan;95322.22;4241038;33;20224;-81
2022/04/23 08:41:34;;;;;;;;;;;8.30;76.40;;;7.21;nan;95323.06;4290104;33;20162;-80
2022/04/23 08:44:05;;;;;;;;;;;8.30;76.40;;;7.22;nan;95318.41;4240862;33;19901;-80
2022/04/23 08:46:34;;;;;;;;;;;8.30;76.40;;;7.21;nan;95317.59;4240625;33;20022;-80
2022/04/23 08:49:16;;;;;;;;;;;8.30;76.40;;;7.21;nan;95314.06;4264862;33;20107;-80
2022/04/23 08:51:47;;;;;;;;;;;8.30;76.40;;;7.23;nan;95320.03;4241095;33;20147;-80
2022/04/23 08:54:16;;;;;;;;;;;8.30;76.40;;;7.24;nan;95324.41;4264797;33;20217;-80
2022/04/23 08:56:45;;;;;;;;;;;8.30;76.40;;;7.23;nan;95322.78;4240462;33;20322;-80
2022/04/23 08:59:15;;;;;;;;;;;8.30;76.40;;;7.24;nan;95324.41;4264863;33;20128;-80
2022/04/23 09:01:44;;;;;;;;;;;8.30;76.40;;;7.25;nan;95325.22;4240914;33;19949;-80
2022/04/23 09:04:14;;;;;;;;;;;8.30;76.40;;;7.23;nan;95325.50;4240878;33;19908;-80
2022/04/23 09:06:44;;;;;;;;;;;8.30;76.40;;;7.24;nan;95323.56;4264320;33;20013;-80
2022/04/23 09:09:14;;;;;;;;;;;8.30;76.40;;;7.26;nan;95335.84;4240797;33;19970;-80
2022/04/23 09:11:45;;;;;;;;;;;8.30;76.30;;;7.26;nan;95327.69;4241117;33;19908;-80
2022/04/23 09:14:32;;;;;;;;;;;8.30;76.40;;;7.27;nan;95332.03;4267168;33;19908;-80
2022/04/23 09:25:31;;;;;;;;;;;8.40;76.20;;;7.32;nan;95342.91;4267217;33;19902;-80
2022/04/23 09:28:17;;;;;;;;;;;8.40;76.20;;;7.32;nan;95331.22;4242854;33;19909;-80
2022/04/23 09:30:47;;;;;;;;;;;8.40;76.20;;;7.34;nan;95340.75;4267274;33;19908;-79
2022/04/23 09:33:15;;;;;;;;;;;8.40;76.10;;;7.35;nan;95333.41;4243530;33;20448;-80
2022/04/23 09:36:04;;;;;;;;;;;8.40;76.10;;;7.37;nan;95337.47;4266762;33;19928;-80
2022/04/23 09:38:32;;;;;;;;;;;8.50;77.00;;;7.39;nan;95334.47;4266981;33;20131;-80
2022/04/23 09:41:15;;;;;;;;;;;8.50;76.00;;;7.42;nan;95330.41;4292913;33;19912;-81
2022/04/23 09:43:44;;;;;;;;;;;8.50;76.00;;;7.45;nan;95338.84;4267470;33;19901;-80
2022/04/23 09:46:13;;;;;;;;;;;8.50;75.90;;;7.46;nan;95331.47;4243168;33;19908;-80
2022/04/23 09:48:43;;;;;;;;;;;8.50;75.90;;;7.47;nan;95330.41;4244006;33;19902;-80
2022/04/23 09:51:24;;;;;;;;;;;8.60;75.90;;;7.47;nan;95339.41;4267718;33;20253;-81
2022/04/23 09:53:53;;;;;;;;;;;8.60;75.90;;;7.48;nan;95334.75;4267621;33;20158;-80
2022/04/23 09:56:22;;;;;;;;;;;8.60;75.80;;;7.48;nan;95332.03;4243680;33;20114;-80
2022/04/23 09:58:51;;;;;;;;;;;8.60;75.80;;;7.48;nan;95332.03;4292236;33;19915;-80
2022/04/23 10:01:20;;;;;;;;;;;8.60;75.70;;;7.50;nan;95330.66;4244494;33;19908;-80
2022/04/23 10:03:51;;;;;;;;;;;8.60;75.70;;;7.49;nan;95331.75;4268991;33;20106;-80
2022/04/23 10:06:20;;;;;;;;;;;8.60;75.70;;;7.50;nan;95327.13;4265064;33;19909;-80
2022/04/23 10:08:53;;;;;;;;;;;8.60;75.80;;;7.51;nan;95323.31;4217358;33;19937;-80
2022/04/23 10:11:25;;;;;;;;;;;8.60;75.80;;;7.53;nan;95321.16;4217749;33;19917;-80
2022/04/23 10:13:55;;;;;;;;;;;8.60;75.80;;;7.56;nan;95331.47;4265213;33;19902;-80
2022/04/23 10:16:23;;;;;;;;;;;8.60;75.80;;;7.57;nan;95330.38;4237271;33;20022;-80
2022/04/23 10:18:52;;;;;;;;;;;8.60;75.70;;;7.59;nan;95330.13;4237741;33;19909;-80
2022/04/23 10:21:29;;;;;;;;;;;8.70;75.70;;;7.59;nan;95336.38;4237539;33;19909;-80
2022/04/23 10:24:05;;;;;;;;;;;8.70;75.60;;;7.60;nan;95335.31;4237077;33;19909;-80
2022/04/23 10:26:39;;;;;;;;;;;8.70;75.70;;;7.61;nan;95345.09;4213659;33;20213;-80
2022/04/23 10:29:13;;;;;;;;;;;8.70;75.60;;;7.60;nan;95348.91;4214213;33;19952;-80
2022/04/23 10:31:42;;;;;;;;;;;8.70;75.70;;;7.61;nan;95342.38;4238454;33;20270;-80
2022/04/23 10:34:33;;;;;;;;;;;8.70;75.70;;;7.60;nan;95348.91;4237597;33;19989;-80
2022/04/23 10:37:17;;;;;;;;;;;8.70;75.70;;;7.60;nan;95338.03;4213635;33;20124;-80
2022/04/23 10:40:13;;;;;;;;;;;8.70;75.70;;;7.61;nan;95339.66;4234318;33;19963;-80
2022/04/23 10:43:08;;;;;;;;;;;8.70;75.80;;;7.61;nan;95338.84;4213969;33;19902;-79
2022/04/23 10:45:38;;;;;;;;;;;8.70;75.70;;;7.61;nan;95334.22;4237515;33;20240;-80
2022/04/23 10:48:26;;;;;;;;;;;8.70;75.80;;;7.62;nan;95333.13;4213689;33;19959;-80
2022/04/23 10:51:06;;;;;;;;;;;8.70;75.80;;;7.63;nan;95336.66;4213894;33;19902;-80
2022/04/23 10:53:56;;;;;;;;;;;8.70;75.80;;;7.64;nan;95339.13;4213858;33;19902;-80
2022/04/23 10:56:26;;;;;;;;;;;8.70;75.70;;;7.64;nan;95341.84;4207492;33;19996;-80
2022/04/23 10:58:55;;;;;;;;;;;8.70;75.70;;;7.65;nan;95339.91;4213836;33;19909;-80
2022/04/23 11:01:29;;;;;;;;;;;8.70;75.80;;;7.65;nan;95339.91;4213715;33;19909;-80
2022/04/23 11:04:21;;;;;;;;;;;8.70;75.70;;;7.64;nan;95339.13;4237370;33;19901;-80
2022/04/23 11:12:38;;;;;;;;;;;8.70;75.80;;;7.65;nan;95348.94;4213419;33;19925;-80
2022/04/23 11:15:18;;;;;;;;;;;8.80;75.80;;;7.65;nan;95338.03;4237138;33;20071;-80
2022/04/23 11:17:56;;;;;;;;;;;8.80;75.80;;;7.66;nan;95336.94;4236722;33;19902;-81
2022/04/23 11:20:42;;;;;;;;;;;8.70;75.80;;;7.66;nan;95342.41;4260915;33;20120;-81
2022/04/23 11:23:11;;;;;;;;;;;8.80;75.90;;;7.65;nan;95340.75;4213646;33;20221;-81
2022/04/23 11:25:39;;;;;;;;;;;8.80;75.90;;;7.67;nan;95340.47;4213663;33;20179;-81
2022/04/23 11:28:18;;;;;;;;;;;8.80;75.90;;;7.68;nan;95342.09;4222025;33;20158;-81
2022/04/23 11:30:47;;;;;;;;;;;8.80;75.90;;;7.69;nan;95330.13;4241813;33;19902;-81
2022/04/23 11:33:16;;;;;;;;;;;8.80;75.90;;;7.70;nan;95328.19;4241803;33;20126;-81
2022/04/23 11:35:44;;;;;;;;;;;8.80;75.90;;;7.70;nan;95330.94;4264839;33;20070;-81
2022/04/23 11:38:26;;;;;;;;;;;8.80;75.90;;;7.70;nan;95330.94;4265239;33;20480;-81
2022/04/23 11:40:55;;;;;;;;;;;8.80;75.80;;;7.71;nan;95333.41;4241629;33;20124;-81
2022/04/23 11:43:37;;;;;;;;;;;8.80;75.80;;;7.71;nan;95338.00;4265507;33;19902;-81
2022/04/23 11:46:07;;;;;;;;;;;8.80;75.80;;;7.72;nan;95326.84;4289415;33;19908;-81
2022/04/23 11:48:47;;;;;;;;;;;8.80;75.90;;;7.72;nan;95324.13;4241777;33;19901;-81
2022/04/23 11:51:19;;;;;;;;;;;8.80;75.90;;;7.72;nan;95323.31;4241713;33;20128;-81
2022/04/23 11:53:55;;;;;;;;;;;8.80;75.80;;;7.74;nan;95326.56;4241574;33;20141;-81
2022/04/23 11:56:32;;;;;;;;;;;8.80;75.80;;;7.75;nan;95318.13;4241108;33;19901;-81
2022/04/23 11:59:06;;;;;;;;;;;8.80;75.70;;;7.77;nan;95318.66;4265569;33;19902;-81
2022/04/23 12:01:36;;;;;;;;;;;8.90;75.80;;;7.78;nan;95316.78;4241577;33;20270;-82
2022/04/23 12:04:05;;;;;;;;;;;8.90;75.70;;;7.78;nan;95319.50;4241672;33;20026;-81
2022/04/23 12:06:44;;;;;;;;;;;8.90;75.70;;;7.78;nan;95322.22;4264820;33;20274;-81
2022/04/23 12:09:13;;;;;;;;;;;8.90;75.70;;;7.77;nan;95323.31;4241626;33;20025;-81
2022/04/23 12:11:41;;;;;;;;;;;8.90;75.80;;;7.77;nan;95315.94;4265455;33;20139;-81
2022/04/23 12:14:12;;;;;;;;;;;8.90;75.80;;;7.76;nan;95318.94;4241528;33;19934;-80
2022/04/23 12:16:41;;;;;;;;;;;8.90;75.90;;;7.76;nan;95314.31;4265078;33;20242;-81
2022/04/23 12:19:10;;;;;;;;;;;8.90;75.90;;;7.75;nan;95317.31;4241714;33;20084;-81
2022/04/23 12:21:39;;;;;;;;;;;8.80;75.70;;;7.76;nan;95316.22;4241563;33;19908;-81
2022/04/23 12:24:10;;;;;;;;;;;8.80;75.80;;;7.77;nan;95306.97;4290032;33;19901;-83
2022/04/23 12:26:39;;;;;;;;;;;8.90;76.00;;;7.78;nan;95300.41;4241860;33;19901;-82
2022/04/23 12:43:25;;;;;;;;;;;8.90;76.00;;;7.76;nan;95314.31;4239455;33;19901;-82
2022/04/23 12:46:08;;;;;;;;;;;8.80;75.90;;;7.75;nan;95300.97;4263245;33;19957;-83
2022/04/23 12:49:03;;;;;;;;;;;8.80;75.90;;;7.75;nan;95311.88;4218393;33;20135;-82
2022/04/23 12:51:32;;;;;;;;;;;8.80;76.00;;;7.75;nan;95306.41;4238509;33;19910;-83
2022/04/23 12:54:01;;;;;;;;;;;8.80;76.00;;;7.75;nan;95298.25;4215473;33;20348;-82